Time;durP1;ratioP1;P1;durP2;ratioP2;P2;SDS_P1;SDS_P2;PMS_P1;PMS_P2;Temp;Humidity;BMP_temperature;BMP_pressure;BME280_temperature;BME280_humidity;BME280_pressure;Samples;Min_cycle;Max_cycle;Signal;HPM_P1;HPM_P2
2022/11/17 00:03:29;;;;;;;13.10;8.30;;;;;;;2.23;100.00;97416.77;214266;1310;23051;-73
2022/11/17 00:08:31;;;;;;;14.10;8.30;;;;;;;2.20;100.00;97411.80;214238;1310;24341;-73
2022/11/17 00:24:18;;;;;;;15.00;9.10;;;;;;;2.18;100.00;97415.63;214316;1310;23164;-73
2022/11/17 00:29:20;;;;;;;13.60;7.10;;;;;;;2.09;100.00;97412.84;214046;1310;23184;-74
2022/11/17 00:34:22;;;;;;;16.70;8.90;;;;;;;2.04;100.00;97420.71;214173;1310;23904;-73
2022/11/17 00:39:24;;;;;;;13.30;7.40;;;;;;;2.02;100.00;97420.27;214219;1310;25150;-74
2022/11/17 00:44:26;;;;;;;12.80;8.30;;;;;;;2.02;100.00;97415.85;214184;1310;22534;-74
2022/11/17 00:49:28;;;;;;;14.90;8.40;;;;;;;2.00;100.00;97410.58;214052;1310;22942;-73
2022/11/17 00:54:30;;;;;;;9.60;5.20;;;;;;;1.98;100.00;97413.06;214203;1310;24353;-74
2022/11/17 00:59:32;;;;;;;11.20;5.10;;;;;;;1.98;100.00;97410.58;214395;1310;24275;-73
2022/11/17 01:04:34;;;;;;;10.70;6.00;;;;;;;1.98;100.00;97413.70;214273;1310;22515;-73
2022/11/17 01:09:35;;;;;;;11.00;5.20;;;;;;;2.00;100.00;97413.48;214332;1309;22479;-73
2022/11/17 01:14:37;;;;;;;6.90;4.70;;;;;;;2.02;100.00;97399.00;214143;1310;24329;-73
2022/11/17 01:19:39;;;;;;;8.70;4.70;;;;;;;2.01;100.00;97393.04;214525;1308;22499;-73
2022/11/17 01:24:41;;;;;;;10.80;5.60;;;;;;;1.99;100.00;97398.38;214254;1310;22419;-71
2022/11/17 01:29:43;;;;;;;8.10;4.80;;;;;;;2.01;100.00;97407.19;214244;1310;22507;-73
2022/11/17 01:34:46;;;;;;;8.10;4.90;;;;;;;2.05;100.00;97398.63;214160;1310;22495;-74
2022/11/17 01:39:49;;;;;;;11.10;6.00;;;;;;;2.08;100.00;97400.00;214334;1310;24197;-73
2022/11/17 01:45:00;;;;;;;11.00;5.90;;;;;;;2.09;100.00;97392.87;214376;1310;24282;-74
2022/11/17 01:50:02;;;;;;;10.80;6.00;;;;;;;2.12;100.00;97389.63;214208;1310;25294;-74
2022/11/17 01:55:07;;;;;;;13.40;7.60;;;;;;;2.14;100.00;97391.70;214127;1310;24423;-73
2022/11/17 02:00:10;;;;;;;12.40;6.30;;;;;;;2.17;100.00;97399.14;214206;1310;22569;-73
2022/11/17 02:06:10;;;;;;;13.10;8.10;;;;;;;2.24;100.00;97405.26;214122;1310;25339;-74
2022/11/17 02:11:16;;;;;;;14.10;7.00;;;;;;;2.33;100.00;97404.65;212925;1317;22503;-74
2022/11/17 02:16:19;;;;;;;16.10;7.60;;;;;;;2.39;100.00;97402.31;214165;1310;25382;-73
2022/11/17 02:22:00;;;;;;;14.00;7.10;;;;;;;2.43;100.00;97389.93;214191;1310;24081;-73
2022/11/17 02:27:30;;;;;;;14.80;7.40;;;;;;;2.43;100.00;97390.68;214294;1309;25352;-74
2022/11/17 02:32:58;;;;;;;9.50;5.20;;;;;;;2.43;100.00;97389.83;214501;1309;22605;-74
2022/11/17 02:38:26;;;;;;;11.20;6.40;;;;;;;2.48;100.00;97387.39;214335;1310;24469;-73
2022/11/17 02:49:07;;;;;;;7.40;5.20;;;;;;;2.50;100.00;97381.30;214369;1307;22482;-73
2022/11/17 02:54:10;;;;;;;7.90;4.80;;;;;;;2.49;100.00;97373.31;214172;1310;24307;-74
2022/11/17 02:59:15;;;;;;;8.30;4.50;;;;;;;2.51;100.00;97373.05;214272;1310;22565;-74
2022/11/17 03:04:20;;;;;;;8.40;5.70;;;;;;;2.49;100.00;97375.43;214209;1310;22667;-74
2022/11/17 03:09:43;;;;;;;10.40;6.60;;;;;;;2.50;100.00;97375.90;214332;1301;24903;-74
2022/11/17 03:15:03;;;;;;;11.20;5.70;;;;;;;2.51;100.00;97378.91;214397;1311;22468;-74
2022/11/17 03:20:13;;;;;;;11.20;6.60;;;;;;;2.51;100.00;97376.00;214247;1310;22493;-72
2022/11/17 03:25:20;;;;;;;9.60;6.40;;;;;;;2.50;100.00;97368.45;214293;1304;22514;-74
2022/11/17 03:30:24;;;;;;;11.60;6.10;;;;;;;2.48;100.00;97368.30;213936;1306;22597;-74
2022/11/17 03:35:31;;;;;;;7.10;4.80;;;;;;;2.49;100.00;97368.73;214282;1310;22578;-74
2022/11/17 03:40:38;;;;;;;10.60;5.80;;;;;;;2.50;100.00;97369.78;214122;1310;22521;-74
2022/11/17 03:45:46;;;;;;;7.90;4.60;;;;;;;2.50;100.00;97358.67;214366;1310;22477;-73
2022/11/17 03:50:56;;;;;;;6.90;4.70;;;;;;;2.53;100.00;97369.98;214091;1304;22469;-73
2022/11/17 03:56:09;;;;;;;8.20;5.20;;;;;;;2.54;100.00;97374.99;214321;1313;22532;-74
2022/11/17 04:01:13;;;;;;;7.40;4.30;;;;;;;2.51;100.00;97370.14;214169;1312;22603;-73
2022/11/17 04:06:15;;;;;;;9.20;5.50;;;;;;;2.51;100.00;97367.66;214471;1310;24284;-76
2022/11/17 04:16:38;;;;;;;8.20;5.10;;;;;;;2.54;100.00;97373.83;214215;1311;24232;-75
2022/11/17 04:21:40;;;;;;;6.60;4.50;;;;;;;2.57;100.00;97373.60;214057;1310;22466;-75
2022/11/17 04:32:02;;;;;;;8.40;5.10;;;;;;;2.56;100.00;97371.59;214267;1310;22483;-73
2022/11/17 04:37:16;;;;;;;7.00;4.30;;;;;;;2.57;100.00;97381.01;214231;1310;22488;-72
2022/11/17 04:42:18;;;;;;;7.10;4.30;;;;;;;2.61;100.00;97384.75;214282;1310;25330;-73
2022/11/17 04:47:20;;;;;;;6.40;4.60;;;;;;;2.62;100.00;97383.17;214313;1309;22469;-73
2022/11/17 04:52:21;;;;;;;6.80;4.80;;;;;;;2.62;100.00;97388.09;214335;1310;22481;-73
2022/11/17 04:57:30;;;;;;;5.60;3.70;;;;;;;2.64;100.00;97392.14;214209;1310;22480;-73
2022/11/17 05:02:32;;;;;;;4.70;3.30;;;;;;;2.63;100.00;97392.63;214517;1310;22477;-73
2022/11/17 05:07:34;;;;;;;6.00;3.40;;;;;;;2.65;100.00;97394.46;214134;1310;24882;-73
2022/11/17 05:17:56;;;;;;;5.80;3.70;;;;;;;2.66;100.00;97383.73;214468;1310;25322;-72
2022/11/17 05:28:18;;;;;;;5.00;3.20;;;;;;;2.68;100.00;97382.98;214104;1310;23065;-73
2022/11/17 05:33:20;;;;;;;5.90;3.70;;;;;;;2.68;100.00;97388.27;214407;1291;22490;-73
2022/11/17 05:38:22;;;;;;;8.70;4.50;;;;;;;2.67;100.00;97391.92;214312;1310;25351;-73
2022/11/17 05:43:24;;;;;;;5.50;3.30;;;;;;;2.70;100.00;97400.47;214174;1310;22468;-72
2022/11/17 05:48:26;;;;;;;5.00;3.70;;;;;;;2.71;100.00;97397.61;214273;1310;22505;-73
2022/11/17 05:53:29;;;;;;;5.90;4.00;;;;;;;2.72;100.00;97405.33;214169;1310;22482;-72
2022/11/17 05:58:35;;;;;;;3.00;2.00;;;;;;;2.74;100.00;97412.84;214346;1310;24280;-73
2022/11/17 06:03:41;;;;;;;5.20;2.70;;;;;;;2.76;100.00;97420.81;214116;1310;22453;-72
2022/11/17 06:08:42;;;;;;;4.30;2.90;;;;;;;2.73;100.00;97423.95;214364;1310;25514;-72
2022/11/17 06:13:44;;;;;;;5.40;3.30;;;;;;;2.72;100.00;97425.21;214368;1310;22880;-72
2022/11/17 06:18:54;;;;;;;4.20;2.50;;;;;;;2.73;100.00;97422.84;214408;1291;22581;-71
2022/11/17 06:23:56;;;;;;;2.40;1.80;;;;;;;2.69;100.00;97418.98;214205;1310;25480;-72
2022/11/17 06:29:01;;;;;;;1.20;1.00;;;;;;;2.69;100.00;97419.26;214232;1310;22631;-72
2022/11/17 06:34:04;;;;;;;2.90;1.40;;;;;;;2.68;100.00;97412.97;214340;1309;22537;-73
2022/11/17 06:39:05;;;;;;;2.00;1.40;;;;;;;2.67;100.00;97417.31;214448;1284;25232;-72
2022/11/17 06:44:07;;;;;;;1.80;0.90;;;;;;;2.71;100.00;97416.77;214725;1292;25503;-72
2022/11/17 06:49:09;;;;;;;3.60;1.30;;;;;;;2.72;100.00;97416.02;214405;1288;23049;-72
2022/11/17 06:54:13;;;;;;;3.50;2.00;;;;;;;2.71;100.00;97411.84;214678;1289;22474;-72
2022/11/17 06:59:16;;;;;;;4.10;2.70;;;;;;;2.69;100.00;97406.50;214942;1284;139186;-71
2022/11/17 07:04:18;;;;;;;1.80;1.40;;;;;;;2.71;100.00;97416.55;214853;1284;138416;-74
2022/11/17 07:09:20;;;;;;;2.20;1.20;;;;;;;2.73;100.00;97415.48;214831;1281;138544;-71
2022/11/17 07:14:22;;;;;;;2.20;1.20;;;;;;;2.77;100.00;97415.89;214888;1284;22527;-72
2022/11/17 07:19:24;;;;;;;1.60;1.10;;;;;;;2.79;100.00;97427.14;214631;1284;138424;-71
2022/11/17 07:24:26;;;;;;;5.00;2.40;;;;;;;2.81;100.00;97426.89;214513;1278;138258;-69
2022/11/17 07:29:29;;;;;;;4.50;2.50;;;;;;;2.79;100.00;97431.22;214710;1284;138179;-70
2022/11/17 07:34:31;;;;;;;3.80;2.10;;;;;;;2.76;100.00;97447.46;214478;1281;138168;-71
2022/11/17 07:39:33;;;;;;;2.30;1.50;;;;;;;2.74;100.00;97452.40;214462;1285;138119;-70
2022/11/17 07:44:35;;;;;;;2.30;1.60;;;;;;;2.74;100.00;97457.31;214657;1278;24406;-70
2022/11/17 07:49:37;;;;;;;1.60;1.00;;;;;;;2.76;100.00;97460.58;214531;1284;137857;-69
2022/11/17 07:54:39;;;;;;;1.60;1.20;;;;;;;2.78;100.00;97461.27;214507;1285;138120;-71
2022/11/17 07:59:41;;;;;;;2.10;1.10;;;;;;;2.76;100.00;97461.33;214795;1310;138574;-70
2022/11/17 08:04:43;;;;;;;2.50;1.40;;;;;;;2.76;100.00;97463.17;214889;1278;138289;-69
2022/11/17 08:09:45;;;;;;;1.20;1.10;;;;;;;2.79;100.00;97461.38;214682;1285;140188;-73
2022/11/17 08:14:47;;;;;;;1.60;1.00;;;;;;;2.79;100.00;97464.34;214813;1281;24349;-71
2022/11/17 08:19:49;;;;;;;2.00;1.10;;;;;;;2.80;100.00;97462.85;214673;1284;137926;-69
2022/11/17 08:24:51;;;;;;;1.60;1.40;;;;;;;2.79;100.00;97468.72;214263;1309;138121;-70
2022/11/17 08:29:52;;;;;;;1.60;1.10;;;;;;;2.78;100.00;97472.70;214550;1278;138161;-70
2022/11/17 08:34:54;;;;;;;2.60;1.10;;;;;;;2.76;100.00;97475.45;214595;1281;138198;-70
2022/11/17 08:39:56;;;;;;;1.50;0.90;;;;;;;2.78;100.00;97470.05;214662;1301;138340;-72
2022/11/17 08:44:59;;;;;;;1.60;1.20;;;;;;;2.83;100.00;97463.37;214566;1295;22473;-69
2022/11/17 08:50:01;;;;;;;1.50;0.80;;;;;;;2.85;100.00;97454.01;214392;1284;137668;-70
2022/11/17 08:55:04;;;;;;;1.50;0.80;;;;;;;2.91;99.96;97469.42;214525;1285;138479;-73
2022/11/17 09:00:07;;;;;;;0.70;0.70;;;;;;;3.01;99.86;97475.59;215221;1281;138062;-72
2022/11/17 09:05:09;;;;;;;2.40;1.20;;;;;;;3.10;99.55;97474.91;214946;1288;138106;-71
2022/11/17 09:10:11;;;;;;;2.10;1.40;;;;;;;3.15;98.97;97484.84;214523;1285;138067;-77
2022/11/17 09:15:13;;;;;;;2.80;1.40;;;;;;;3.16;99.18;97483.77;214563;1281;138040;-70
2022/11/17 09:20:16;;;;;;;2.00;1.40;;;;;;;3.22;99.14;97481.27;214657;1309;23772;-73
2022/11/17 09:25:18;;;;;;;4.10;1.60;;;;;;;3.30;99.20;97479.85;214443;1291;138829;-71
2022/11/17 09:30:21;;;;;;;1.80;1.30;;;;;;;3.31;98.85;97480.21;214646;1287;138553;-71
2022/11/17 09:35:23;;;;;;;2.20;1.30;;;;;;;3.32;98.56;97483.60;214376;1278;138153;-70
2022/11/17 09:40:25;;;;;;;3.00;2.00;;;;;;;3.32;98.28;97490.21;214263;1298;138144;-72
2022/11/17 09:45:33;;;;;;;4.10;2.30;;;;;;;3.31;98.24;97491.23;214245;1293;138049;-74
2022/11/17 09:50:38;;;;;;;5.00;3.00;;;;;;;3.32;98.33;97490.80;214601;1285;22696;-71
2022/11/17 09:55:44;;;;;;;5.30;3.20;;;;;;;3.29;98.19;97497.22;214188;1284;138015;-74
2022/11/17 10:00:47;;;;;;;2.30;1.60;;;;;;;3.28;98.31;97499.17;215040;1294;138193;-72
2022/11/17 10:05:50;;;;;;;2.60;1.50;;;;;;;3.30;98.11;97502.20;214574;1278;138087;-71
2022/11/17 10:10:52;;;;;;;2.00;1.20;;;;;;;3.37;97.93;97497.61;214705;1289;138496;-73
2022/11/17 10:15:59;;;;;;;2.10;1.80;;;;;;;3.35;97.74;97493.32;215422;1278;138484;-71
2022/11/17 10:21:04;;;;;;;2.30;1.60;;;;;;;3.30;97.07;97493.61;215080;1289;25336;-70
2022/11/17 10:26:08;;;;;;;2.00;1.10;;;;;;;3.25;97.07;97489.52;214632;1288;137757;-70
2022/11/17 10:31:18;;;;;;;1.50;1.30;;;;;;;3.22;96.83;97481.00;214794;1287;138606;-71
2022/11/17 10:36:27;;;;;;;3.10;1.70;;;;;;;3.23;96.50;97477.55;214753;1284;138062;-71
2022/11/17 10:41:40;;;;;;;3.50;2.40;;;;;;;3.24;96.47;97479.92;214695;1284;137954;-72
2022/11/17 10:47:06;;;;;;;4.10;2.10;;;;;;;3.21;96.20;97480.64;214893;1285;137975;-72
2022/11/17 10:52:15;;;;;;;4.60;2.10;;;;;;;3.16;96.29;97484.05;214596;1284;139035;-69
2022/11/17 10:57:25;;;;;;;2.60;1.90;;;;;;;3.08;96.25;97484.13;215010;1278;138225;-74
2022/11/17 11:02:35;;;;;;;3.20;2.30;;;;;;;3.00;95.86;97477.97;215399;1281;22523;-70
2022/11/17 11:07:38;;;;;;;2.60;1.90;;;;;;;3.02;96.18;97468.06;214759;1282;137755;-70
2022/11/17 11:12:46;;;;;;;2.90;1.70;;;;;;;3.07;95.79;97467.46;214516;1285;138521;-69
2022/11/17 11:17:49;;;;;;;3.80;2.50;;;;;;;3.07;95.82;97474.77;214274;1298;137959;-70
2022/11/17 11:22:54;;;;;;;3.40;2.10;;;;;;;3.14;95.89;97476.91;214859;1286;137933;-69
2022/11/17 11:28:18;;;;;;;14.00;7.80;;;;;;;3.21;95.66;97482.06;214372;1288;138367;-70
2022/11/17 11:33:35;;;;;;;2.30;2.10;;;;;;;3.21;95.15;97485.50;214350;1309;138287;-70
2022/11/17 11:38:49;;;;;;;2.70;2.00;;;;;;;3.15;94.64;97490.45;214714;1285;22484;-71
2022/11/17 11:43:56;;;;;;;3.00;1.80;;;;;;;3.15;94.82;97492.23;214271;1310;138115;-71
2022/11/17 11:49:11;;;;;;;2.20;1.60;;;;;;;3.25;94.99;97487.66;214497;1285;138331;-68
2022/11/17 11:54:48;;;;;;;2.50;1.80;;;;;;;3.32;94.53;97492.39;214410;1288;138148;-72
2022/11/17 12:00:00;;;;;;;3.90;3.30;;;;;;;3.30;94.57;97501.66;214989;1286;138070;-72
2022/11/17 12:05:19;;;;;;;3.20;2.10;;;;;;;3.31;94.57;97494.99;214926;1304;138210;-71
2022/11/17 12:10:40;;;;;;;1.70;1.30;;;;;;;3.26;93.87;97490.67;214295;1309;138013;-71
2022/11/17 12:15:42;;;;;;;2.50;1.90;;;;;;;3.22;94.04;97497.10;214524;1285;138382;-71
2022/11/17 12:20:50;;;;;;;3.70;2.90;;;;;;;3.21;94.32;97500.38;214508;1310;22521;-70
2022/11/17 12:25:57;;;;;;;2.90;2.00;;;;;;;3.17;94.04;97497.69;214403;1300;137999;-70
2022/11/17 12:31:08;;;;;;;3.80;3.20;;;;;;;3.10;93.82;97501.01;214366;1309;137790;-70
2022/11/17 12:36:17;;;;;;;2.80;2.10;;;;;;;2.98;93.85;97505.27;214370;1294;138236;-70
2022/11/17 12:41:47;;;;;;;3.10;2.20;;;;;;;2.87;93.39;97505.67;214555;1278;138012;-71
2022/11/17 12:46:54;;;;;;;4.70;3.00;;;;;;;2.74;93.48;97499.73;214577;1281;138014;-72
2022/11/17 12:52:05;;;;;;;3.10;2.20;;;;;;;2.64;93.33;97498.65;214777;1281;138177;-70
2022/11/17 12:57:13;;;;;;;3.40;2.00;;;;;;;2.62;93.60;97493.15;214510;1286;24226;-70
2022/11/17 13:02:46;;;;;;;3.20;2.30;;;;;;;2.65;93.46;97516.09;215487;1282;24832;-72
2022/11/17 13:07:48;;;;;;;3.10;2.40;;;;;;;2.62;93.62;97521.81;214600;1278;138105;-71
2022/11/17 13:13:11;;;;;;;5.50;3.20;;;;;;;2.59;93.49;97522.98;214405;1289;138151;-72
2022/11/17 13:18:27;;;;;;;2.90;2.60;;;;;;;2.52;93.35;97521.55;214250;1285;138431;-72
2022/11/17 13:23:32;;;;;;;7.70;3.90;;;;;;;2.51;93.57;97512.79;214295;1309;138153;-71
2022/11/17 13:28:34;;;;;;;9.70;4.20;;;;;;;2.54;93.79;97515.59;214588;1310;138014;-72
2022/11/17 13:33:36;;;;;;;7.70;3.90;;;;;;;2.59;93.82;97515.52;214617;1286;138267;-69
2022/11/17 13:38:51;;;;;;;4.80;3.20;;;;;;;2.58;93.58;97519.27;214433;1310;22960;-69
2022/11/17 13:43:54;;;;;;;7.60;4.50;;;;;;;2.57;93.76;97515.48;214595;1287;137082;-71
2022/11/17 13:48:56;;;;;;;7.00;4.20;;;;;;;2.59;93.83;97505.91;214391;1278;138533;-80
2022/11/17 13:53:59;;;;;;;3.90;3.10;;;;;;;2.58;93.43;97506.48;214586;1278;138346;-73
2022/11/17 13:59:16;;;;;;;7.50;4.30;;;;;;;2.53;93.43;97516.54;215026;1278;138332;-73
2022/11/17 14:04:21;;;;;;;5.00;3.40;;;;;;;2.56;93.46;97521.24;215005;1287;138514;-73
2022/11/17 14:09:25;;;;;;;3.40;2.30;;;;;;;2.49;93.32;97522.63;214484;1285;138486;-72
2022/11/17 14:14:37;;;;;;;3.90;2.40;;;;;;;2.45;93.25;97509.09;214495;1278;24455;-72
2022/11/17 14:19:39;;;;;;;4.80;3.30;;;;;;;2.39;93.37;97502.80;214626;1285;138298;-73
2022/11/17 14:24:41;;;;;;;5.20;2.50;;;;;;;2.37;93.52;97515.48;214728;1282;138239;-72
2022/11/17 14:29:43;;;;;;;4.20;3.40;;;;;;;2.33;93.28;97506.94;214935;1281;138410;-73
2022/11/17 14:34:45;;;;;;;4.50;3.70;;;;;;;2.28;93.24;97494.36;214797;1282;138480;-74
2022/11/17 14:39:47;;;;;;;6.20;4.40;;;;;;;2.26;93.29;97485.21;214562;1278;138428;-72
2022/11/17 14:44:49;;;;;;;5.80;4.10;;;;;;;2.15;93.18;97482.58;214848;1278;25360;-74
2022/11/17 14:49:51;;;;;;;5.50;3.40;;;;;;;2.10;93.23;97485.17;214790;1278;138282;-72
2022/11/17 14:54:53;;;;;;;4.80;3.10;;;;;;;2.04;93.13;97478.83;214581;1281;138584;-72
2022/11/17 14:59:54;;;;;;;7.90;4.60;;;;;;;1.99;93.23;97470.21;214953;1281;138036;-71
2022/11/17 15:04:58;;;;;;;4.70;3.00;;;;;;;1.96;93.27;97467.15;214677;1285;25402;-70
2022/11/17 15:10:01;;;;;;;4.60;3.40;;;;;;;1.90;93.25;97458.23;214437;1310;25303;-71
2022/11/17 15:15:04;;;;;;;6.30;3.80;;;;;;;1.87;93.24;97471.96;214398;1310;22489;-71
2022/11/17 15:20:06;;;;;;;6.60;4.00;;;;;;;1.85;93.50;97481.05;214631;1284;25299;-72
2022/11/17 15:25:08;;;;;;;7.10;4.30;;;;;;;1.85;93.49;97470.90;214392;1295;24482;-71
2022/11/17 15:30:11;;;;;;;8.90;5.30;;;;;;;1.85;93.52;97458.53;214236;1310;22473;-72
2022/11/17 15:35:13;;;;;;;7.70;4.50;;;;;;;1.86;93.75;97451.52;214087;1310;23792;-72
2022/11/17 15:40:15;;;;;;;5.70;3.00;;;;;;;1.83;93.42;97451.34;214143;1310;23870;-72
2022/11/17 15:45:20;;;;;;;5.80;3.60;;;;;;;1.76;93.37;97457.79;214332;1303;24706;-73
2022/11/17 15:50:22;;;;;;;6.30;4.00;;;;;;;1.71;93.44;97455.67;214107;1310;24307;-71
2022/11/17 15:55:24;;;;;;;7.10;4.40;;;;;;;1.73;93.69;97455.62;213982;1310;22482;-71
2022/11/17 16:00:25;;;;;;;5.20;4.10;;;;;;;1.79;93.84;97453.15;214356;1310;24422;-72
2022/11/17 16:05:27;;;;;;;11.40;6.40;;;;;;;1.81;93.87;97471.10;214281;1310;25336;-71
2022/11/17 16:10:29;;;;;;;8.60;5.00;;;;;;;1.85;93.86;97463.30;214002;1310;25338;-71
2022/11/17 16:15:31;;;;;;;8.90;5.00;;;;;;;1.85;93.74;97463.92;214226;1310;23731;-72
2022/11/17 16:20:33;;;;;;;14.10;6.70;;;;;;;1.89;93.95;97470.58;214433;1310;22485;-71
2022/11/17 16:25:42;;;;;;;10.90;6.00;;;;;;;1.90;93.82;97470.59;213969;1310;22469;-71
2022/11/17 16:30:44;;;;;;;8.40;5.50;;;;;;;1.84;93.60;97463.83;214321;1310;22489;-71
2022/11/17 16:35:46;;;;;;;8.00;4.80;;;;;;;1.81;93.77;97464.49;214345;1310;22596;-71
2022/11/17 16:40:48;;;;;;;8.70;4.70;;;;;;;1.81;93.80;97461.08;214185;1310;22484;-71
2022/11/17 16:45:50;;;;;;;8.00;4.70;;;;;;;1.77;93.61;97467.09;214334;1310;24267;-72
2022/11/17 16:50:52;;;;;;;7.50;4.80;;;;;;;1.72;93.59;97462.33;214170;1310;25531;-71
2022/11/17 16:55:54;;;;;;;9.40;4.80;;;;;;;1.70;93.80;97467.14;214427;1310;22545;-72
2022/11/17 17:00:56;;;;;;;11.90;5.70;;;;;;;1.73;93.85;97482.83;214150;1310;25284;-72
2022/11/17 17:06:02;;;;;;;5.90;3.50;;;;;;;1.71;93.70;97482.29;214228;1310;22528;-71
2022/11/17 17:11:07;;;;;;;6.80;3.50;;;;;;;1.69;93.57;97469.41;214138;1310;23292;-71
2022/11/17 17:16:12;;;;;;;7.90;3.80;;;;;;;1.67;93.66;97468.02;214416;1310;25392;-73
2022/11/17 17:21:17;;;;;;;7.20;4.20;;;;;;;1.70;93.75;97474.70;214077;1310;22471;-71
2022/11/17 17:26:21;;;;;;;5.80;3.70;;;;;;;1.68;93.64;97481.29;214101;1310;24276;-73
2022/11/17 17:31:24;;;;;;;11.10;5.70;;;;;;;1.74;93.80;97487.84;214223;1310;25222;-71
2022/11/17 17:36:28;;;;;;;9.20;4.80;;;;;;;1.76;93.75;97485.88;214144;1310;22485;-72
2022/11/17 17:41:32;;;;;;;9.60;5.10;;;;;;;1.75;93.54;97475.75;214209;1310;22594;-70
2022/11/17 17:46:37;;;;;;;7.60;4.60;;;;;;;1.69;93.45;97454.62;214256;1310;25373;-73
2022/11/17 17:51:42;;;;;;;9.70;5.00;;;;;;;1.67;93.62;97468.92;214140;1310;22479;-70
2022/11/17 17:56:46;;;;;;;7.80;4.60;;;;;;;1.70;93.73;97456.78;214089;1310;22482;-71
2022/11/17 18:01:48;;;;;;;7.30;4.00;;;;;;;1.76;93.70;97425.21;214076;1309;22507;-72
2022/11/17 18:06:50;;;;;;;8.20;5.20;;;;;;;1.72;93.43;97443.91;214220;1310;25272;-71
2022/11/17 18:11:52;;;;;;;10.80;5.90;;;;;;;1.70;93.63;97436.25;214324;1310;24084;-71
2022/11/17 18:16:54;;;;;;;9.70;5.00;;;;;;;1.73;93.68;97420.45;214016;1310;22698;-73
2022/11/17 18:21:56;;;;;;;9.40;4.90;;;;;;;1.70;93.42;97418.35;214037;1309;22492;-71
2022/11/17 18:26:58;;;;;;;6.70;4.50;;;;;;;1.64;93.36;97414.21;214107;1299;22495;-72
2022/11/17 18:32:00;;;;;;;8.50;5.00;;;;;;;1.58;93.27;97412.69;214139;1310;23203;-72
2022/11/17 18:37:02;;;;;;;7.40;3.60;;;;;;;1.53;93.36;97409.15;214059;1310;22571;-70
2022/11/17 18:42:04;;;;;;;6.50;4.00;;;;;;;1.51;93.17;97424.39;214063;1310;22508;-72
2022/11/17 18:47:06;;;;;;;6.90;4.00;;;;;;;1.49;93.31;97433.85;214086;1310;22475;-71
2022/11/17 18:52:08;;;;;;;7.50;4.30;;;;;;;1.51;93.46;97438.61;214065;1285;22485;-70
2022/11/17 18:57:10;;;;;;;6.60;3.80;;;;;;;1.50;93.38;97447.25;214233;1309;25256;-72
2022/11/17 19:02:12;;;;;;;6.30;3.20;;;;;;;1.53;93.51;97454.81;214154;1310;24090;-71
2022/11/17 19:07:14;;;;;;;8.20;4.90;;;;;;;1.56;93.32;97455.76;213970;1310;22495;-71
2022/11/17 19:12:17;;;;;;;7.70;4.20;;;;;;;1.57;93.31;97446.95;214106;1310;22510;-72
2022/11/17 19:17:19;;;;;;;9.20;3.80;;;;;;;1.58;93.22;97443.16;214082;1310;24477;-72
2022/11/17 19:22:22;;;;;;;6.60;3.40;;;;;;;1.57;93.03;97437.98;214202;1310;22604;-72
2022/11/17 19:27:23;;;;;;;10.30;5.40;;;;;;;1.57;93.01;97439.04;214001;1310;23225;-71
2022/11/17 19:32:25;;;;;;;7.00;3.80;;;;;;;1.54;92.84;97438.51;214434;1310;24320;-72
2022/11/17 19:37:27;;;;;;;9.40;4.10;;;;;;;1.51;92.88;97446.61;214244;1310;22958;-71
2022/11/17 19:42:29;;;;;;;8.50;4.80;;;;;;;1.52;93.15;97454.54;214030;1310;22581;-72
2022/11/17 19:47:31;;;;;;;9.20;5.50;;;;;;;1.56;93.12;97455.55;214082;1307;22471;-70
2022/11/17 19:52:33;;;;;;;8.80;4.30;;;;;;;1.57;93.19;97465.53;214361;1308;22475;-72
2022/11/17 19:57:35;;;;;;;8.90;4.30;;;;;;;1.55;92.87;97464.79;214030;1307;22659;-71
2022/11/17 20:02:37;;;;;;;8.90;4.60;;;;;;;1.50;92.90;97453.54;214286;1310;22501;-72
2022/11/17 20:07:39;;;;;;;6.70;4.20;;;;;;;1.49;92.92;97449.95;214306;1310;22507;-71
2022/11/17 20:12:42;;;;;;;8.80;4.40;;;;;;;1.46;92.94;97443.39;214474;1310;24736;-70
2022/11/17 20:17:44;;;;;;;9.70;4.30;;;;;;;1.43;92.95;97442.18;214304;1309;22567;-72
2022/11/17 20:22:46;;;;;;;8.00;4.40;;;;;;;1.41;92.94;97426.87;214165;1310;22580;-72
2022/11/17 20:27:48;;;;;;;6.50;4.20;;;;;;;1.39;92.86;97425.91;214166;1310;22519;-71
2022/11/17 20:32:50;;;;;;;7.50;4.30;;;;;;;1.38;92.91;97420.64;214196;1310;25294;-72
2022/11/17 20:37:51;;;;;;;9.10;4.80;;;;;;;1.35;92.78;97419.94;214202;1310;22507;-71
2022/11/17 20:42:53;;;;;;;8.20;4.30;;;;;;;1.33;92.90;97419.73;214169;1310;22476;-71
2022/11/17 20:47:55;;;;;;;8.00;4.30;;;;;;;1.33;93.08;97415.39;214265;1310;23159;-72
2022/11/17 20:52:57;;;;;;;7.30;3.70;;;;;;;1.38;93.11;97414.56;214158;1310;25456;-71
2022/11/17 20:57:59;;;;;;;10.20;4.80;;;;;;;1.43;93.09;97405.55;214332;1310;22464;-72
2022/11/17 21:03:01;;;;;;;9.40;5.10;;;;;;;1.43;92.91;97404.02;214265;1310;22474;-71
2022/11/17 21:08:03;;;;;;;7.80;5.20;;;;;;;1.36;92.66;97402.31;214348;1310;24487;-71
2022/11/17 21:13:05;;;;;;;12.90;4.80;;;;;;;1.30;92.69;97400.67;214169;1307;22477;-72
2022/11/17 21:18:25;;;;;;;7.20;4.20;;;;;;;1.24;92.68;97395.59;214065;1310;26381;-70
2022/11/17 21:23:27;;;;;;;11.10;5.00;;;;;;;1.22;92.97;97387.04;214307;1310;22579;-71
2022/11/17 21:28:29;;;;;;;12.10;6.10;;;;;;;1.24;92.97;97382.40;213979;1310;22490;-71
2022/11/17 21:33:31;;;;;;;9.10;4.90;;;;;;;1.23;92.87;97379.71;214197;1310;25316;-74
2022/11/17 21:38:33;;;;;;;7.90;4.70;;;;;;;1.26;93.01;97368.37;214157;1310;24354;-72
2022/11/17 21:43:37;;;;;;;12.40;5.90;;;;;;;1.26;93.02;97364.36;214104;1310;22560;-72
2022/11/17 21:48:39;;;;;;;8.80;5.10;;;;;;;1.25;92.87;97362.41;214230;1310;22577;-73
2022/11/17 21:53:41;;;;;;;10.40;5.60;;;;;;;1.21;92.91;97361.99;214136;1313;24276;-72
2022/11/17 21:58:43;;;;;;;11.00;6.50;;;;;;;1.20;92.89;97363.40;214098;1310;22490;-72
2022/11/17 22:03:45;;;;;;;11.50;5.40;;;;;;;1.17;92.94;97357.23;214219;1312;23749;-72
2022/11/17 22:08:48;;;;;;;9.80;5.90;;;;;;;1.14;92.93;97356.31;214156;1313;25227;-71
2022/11/17 22:13:56;;;;;;;10.10;5.40;;;;;;;1.13;92.84;97354.05;214053;1310;22482;-73
2022/11/17 22:18:58;;;;;;;12.60;5.70;;;;;;;1.18;93.11;97351.27;214233;1310;22471;-72
2022/11/17 22:24:01;;;;;;;10.40;5.20;;;;;;;1.18;92.94;97347.67;214105;1310;22502;-71
2022/11/17 22:29:05;;;;;;;9.00;5.10;;;;;;;1.19;92.92;97351.10;214092;1310;22580;-71
2022/11/17 22:34:07;;;;;;;8.90;5.30;;;;;;;1.20;93.19;97345.30;214219;1310;24297;-71
2022/11/17 22:39:09;;;;;;;8.80;4.80;;;;;;;1.20;92.98;97340.40;214057;1303;141137;-73
2022/11/17 22:44:13;;;;;;;12.30;6.00;;;;;;;1.21;93.19;97337.71;214421;1309;22490;-71
2022/11/17 22:49:14;;;;;;;9.70;5.10;;;;;;;1.22;93.10;97330.38;214163;1310;22528;-71
2022/11/17 22:54:17;;;;;;;7.10;4.10;;;;;;;1.23;93.14;97321.94;214258;1313;25272;-72
2022/11/17 22:59:22;;;;;;;9.90;4.90;;;;;;;1.26;93.15;97323.48;214050;1310;22515;-72
2022/11/17 23:04:24;;;;;;;8.60;4.80;;;;;;;1.26;92.96;97328.48;214101;1310;22602;-72
2022/11/17 23:09:25;;;;;;;10.40;5.00;;;;;;;1.27;93.09;97332.44;214276;1310;22548;-71
2022/11/17 23:14:28;;;;;;;10.30;5.30;;;;;;;1.27;93.02;97327.85;214026;1309;22609;-72
2022/11/17 23:19:29;;;;;;;12.80;6.20;;;;;;;1.24;92.91;97326.06;214166;1310;25283;-71
2022/11/17 23:24:31;;;;;;;15.60;7.30;;;;;;;1.27;93.10;97320.10;214170;1309;25302;-70
2022/11/17 23:29:33;;;;;;;10.00;4.80;;;;;;;1.29;93.01;97320.32;214288;1310;24074;-73
2022/11/17 23:34:35;;;;;;;12.60;6.60;;;;;;;1.30;93.09;97325.84;214450;1310;24260;-72
2022/11/17 23:39:37;;;;;;;12.10;6.30;;;;;;;1.30;93.14;97322.42;214309;1310;22467;-71
2022/11/17 23:44:39;;;;;;;14.60;7.20;;;;;;;1.29;93.04;97320.35;213939;1310;24542;-72
2022/11/17 23:49:40;;;;;;;12.10;5.50;;;;;;;1.23;92.99;97317.40;214218;1310;22472;-71
2022/11/17 23:54:42;;;;;;;10.00;5.80;;;;;;;1.21;92.99;97323.94;214262;1310;25947;-72
2022/11/17 23:59:45;;;;;;;17.50;7.50;;;;;;;1.19;93.07;97317.77;214165;1310;25387;-71
